sensor_id;sensor_type;location;lat;lon;timestamp;temperature;humidity
68128;SHT30;54931;52.098;21.006;2023-04-07T00:00:06;4.63;85.09
68128;SHT30;54931;52.098;21.006;2023-04-07T00:02:56;4.65;85.03
68128;SHT30;54931;52.098;21.006;2023-04-07T00:05:25;4.67;85.01
68128;SHT30;54931;52.098;21.006;2023-04-07T00:07:52;4.69;85.00
68128;SHT30;54931;52.098;21.006;2023-04-07T00:10:20;4.71;85.01
68128;SHT30;54931;52.098;21.006;2023-04-07T00:12:48;4.73;85.00
68128;SHT30;54931;52.098;21.006;2023-04-07T00:15:15;4.74;85.00
68128;SHT30;54931;52.098;21.006;2023-04-07T00:17:43;4.75;85.00
68128;SHT30;54931;52.098;21.006;2023-04-07T00:20:10;4.78;85.01
68128;SHT30;54931;52.098;21.006;2023-04-07T00:22:39;4.79;85.08
68128;SHT30;54931;52.098;21.006;2023-04-07T00:25:06;4.81;85.05
68128;SHT30;54931;52.098;21.006;2023-04-07T00:27:35;4.83;85.10
68128;SHT30;54931;52.098;21.006;2023-04-07T00:30:02;4.84;85.08
68128;SHT30;54931;52.098;21.006;2023-04-07T00:32:31;4.85;85.09
68128;SHT30;54931;52.098;21.006;2023-04-07T00:34:59;4.87;85.09
68128;SHT30;54931;52.098;21.006;2023-04-07T00:37:27;4.88;85.05
68128;SHT30;54931;52.098;21.006;2023-04-07T00:39:55;4.88;85.05
68128;SHT30;54931;52.098;21.006;2023-04-07T00:42:23;4.89;85.06
68128;SHT30;54931;52.098;21.006;2023-04-07T00:44:51;4.89;85.10
68128;SHT30;54931;52.098;21.006;2023-04-07T00:47:19;4.92;85.09
68128;SHT30;54931;52.098;21.006;2023-04-07T00:49:46;4.93;85.10
68128;SHT30;54931;52.098;21.006;2023-04-07T00:52:14;4.94;85.09
68128;SHT30;54931;52.098;21.006;2023-04-07T00:54:42;4.96;85.10
68128;SHT30;54931;52.098;21.006;2023-04-07T00:57:12;4.98;85.10
68128;SHT30;54931;52.098;21.006;2023-04-07T00:59:41;5.00;85.15
68128;SHT30;54931;52.098;21.006;2023-04-07T01:02:15;5.01;85.19
68128;SHT30;54931;52.098;21.006;2023-04-07T01:11:19;5.06;85.24
68128;SHT30;54931;52.098;21.006;2023-04-07T01:13:49;5.09;85.26
68128;SHT30;54931;52.098;21.006;2023-04-07T01:16:23;5.11;85.23
68128;SHT30;54931;52.098;21.006;2023-04-07T01:18:57;5.13;85.25
68128;SHT30;54931;52.098;21.006;2023-04-07T01:21:35;5.16;85.22
68128;SHT30;54931;52.098;21.006;2023-04-07T01:24:12;5.18;85.23
68128;SHT30;54931;52.098;21.006;2023-04-07T01:27:30;5.21;85.20
68128;SHT30;54931;52.098;21.006;2023-04-07T01:30:10;5.23;85.20
68128;SHT30;54931;52.098;21.006;2023-04-07T01:32:41;5.26;85.22
68128;SHT30;54931;52.098;21.006;2023-04-07T01:35:12;5.27;85.23
68128;SHT30;54931;52.098;21.006;2023-04-07T01:37:43;5.28;85.22
68128;SHT30;54931;52.098;21.006;2023-04-07T01:40:15;5.29;85.26
68128;SHT30;54931;52.098;21.006;2023-04-07T01:42:43;5.30;85.26
68128;SHT30;54931;52.098;21.006;2023-04-07T01:45:15;5.31;85.26
68128;SHT30;54931;52.098;21.006;2023-04-07T01:47:44;5.32;85.21
68128;SHT30;54931;52.098;21.006;2023-04-07T01:50:12;5.32;85.21
68128;SHT30;54931;52.098;21.006;2023-04-07T01:52:42;5.33;85.26
68128;SHT30;54931;52.098;21.006;2023-04-07T01:55:11;5.35;85.24
68128;SHT30;54931;52.098;21.006;2023-04-07T01:57:39;5.35;85.25
68128;SHT30;54931;52.098;21.006;2023-04-07T02:00:09;5.37;85.29
68128;SHT30;54931;52.098;21.006;2023-04-07T02:02:39;5.38;85.29
68128;SHT30;54931;52.098;21.006;2023-04-07T02:05:13;5.40;85.29
68128;SHT30;54931;52.098;21.006;2023-04-07T02:10:37;5.43;85.30
68128;SHT30;54931;52.098;21.006;2023-04-07T02:13:05;5.44;85.30
68128;SHT30;54931;52.098;21.006;2023-04-07T02:15:39;5.46;85.30
68128;SHT30;54931;52.098;21.006;2023-04-07T02:18:10;5.49;85.31
68128;SHT30;54931;52.098;21.006;2023-04-07T02:20:41;5.50;85.30
68128;SHT30;54931;52.098;21.006;2023-04-07T02:23:11;5.51;85.33
68128;SHT30;54931;52.098;21.006;2023-04-07T02:25:39;5.53;85.40
68128;SHT30;54931;52.098;21.006;2023-04-07T02:28:06;5.54;85.39
68128;SHT30;54931;52.098;21.006;2023-04-07T02:30:34;5.57;85.39
68128;SHT30;54931;52.098;21.006;2023-04-07T02:33:02;5.58;85.40
68128;SHT30;54931;52.098;21.006;2023-04-07T02:35:30;5.59;85.41
68128;SHT30;54931;52.098;21.006;2023-04-07T02:37:57;5.60;85.40
68128;SHT30;54931;52.098;21.006;2023-04-07T02:40:25;5.61;85.38
68128;SHT30;54931;52.098;21.006;2023-04-07T02:42:52;5.62;85.37
68128;SHT30;54931;52.098;21.006;2023-04-07T02:45:20;5.63;85.31
68128;SHT30;54931;52.098;21.006;2023-04-07T02:47:47;5.64;85.32
68128;SHT30;54931;52.098;21.006;2023-04-07T02:50:16;5.64;85.30
68128;SHT30;54931;52.098;21.006;2023-04-07T02:52:43;5.65;85.31
68128;SHT30;54931;52.098;21.006;2023-04-07T02:55:11;5.66;85.30
68128;SHT30;54931;52.098;21.006;2023-04-07T02:57:38;5.68;85.32
68128;SHT30;54931;52.098;21.006;2023-04-07T03:00:06;5.68;85.34
68128;SHT30;54931;52.098;21.006;2023-04-07T03:02:36;5.69;85.30
68128;SHT30;54931;52.098;21.006;2023-04-07T03:05:05;5.70;85.30
68128;SHT30;54931;52.098;21.006;2023-04-07T03:07:33;5.71;85.32
68128;SHT30;54931;52.098;21.006;2023-04-07T03:10:00;5.72;85.32
68128;SHT30;54931;52.098;21.006;2023-04-07T03:12:28;5.72;85.33
68128;SHT30;54931;52.098;21.006;2023-04-07T03:14:56;5.73;85.38
68128;SHT30;54931;52.098;21.006;2023-04-07T03:17:24;5.75;85.39
68128;SHT30;54931;52.098;21.006;2023-04-07T03:19:52;5.75;85.40
68128;SHT30;54931;52.098;21.006;2023-04-07T03:22:19;5.76;85.42
68128;SHT30;54931;52.098;21.006;2023-04-07T03:24:47;5.77;85.49
68128;SHT30;54931;52.098;21.006;2023-04-07T03:27:15;5.78;85.47
68128;SHT30;54931;52.098;21.006;2023-04-07T03:29:43;5.79;85.50
68128;SHT30;54931;52.098;21.006;2023-04-07T03:32:11;5.80;85.50
68128;SHT30;54931;52.098;21.006;2023-04-07T03:34:39;5.83;85.50
68128;SHT30;54931;52.098;21.006;2023-04-07T03:37:07;5.83;85.50
68128;SHT30;54931;52.098;21.006;2023-04-07T03:39:35;5.85;85.52
68128;SHT30;54931;52.098;21.006;2023-04-07T03:42:03;5.87;85.53
68128;SHT30;54931;52.098;21.006;2023-04-07T03:44:31;5.88;85.54
68128;SHT30;54931;52.098;21.006;2023-04-07T03:46:59;5.89;85.55
68128;SHT30;54931;52.098;21.006;2023-04-07T03:49:28;5.90;85.60
68128;SHT30;54931;52.098;21.006;2023-04-07T03:51:57;5.92;85.60
68128;SHT30;54931;52.098;21.006;2023-04-07T03:54:25;5.92;85.60
68128;SHT30;54931;52.098;21.006;2023-04-07T03:56:52;5.95;85.60
68128;SHT30;54931;52.098;21.006;2023-04-07T03:59:20;5.96;85.60
68128;SHT30;54931;52.098;21.006;2023-04-07T04:01:48;5.96;85.61
68128;SHT30;54931;52.098;21.006;2023-04-07T04:04:16;5.97;85.62
68128;SHT30;54931;52.098;21.006;2023-04-07T04:06:43;6.00;85.61
68128;SHT30;54931;52.098;21.006;2023-04-07T04:09:12;6.01;85.61
68128;SHT30;54931;52.098;21.006;2023-04-07T04:11:40;6.02;85.68
68128;SHT30;54931;52.098;21.006;2023-04-07T04:14:08;6.05;85.69
68128;SHT30;54931;52.098;21.006;2023-04-07T04:16:36;6.06;85.70
68128;SHT30;54931;52.098;21.006;2023-04-07T04:19:04;6.08;85.72
68128;SHT30;54931;52.098;21.006;2023-04-07T04:21:32;6.10;85.78
68128;SHT30;54931;52.098;21.006;2023-04-07T04:24:00;6.12;85.78
68128;SHT30;54931;52.098;21.006;2023-04-07T04:26:27;6.15;85.76
68128;SHT30;54931;52.098;21.006;2023-04-07T04:28:56;6.16;85.79
68128;SHT30;54931;52.098;21.006;2023-04-07T04:31:23;6.18;85.80
68128;SHT30;54931;52.098;21.006;2023-04-07T04:33:51;6.20;85.80
68128;SHT30;54931;52.098;21.006;2023-04-07T04:36:19;6.22;85.80
68128;SHT30;54931;52.098;21.006;2023-04-07T04:38:47;6.23;85.80
68128;SHT30;54931;52.098;21.006;2023-04-07T04:41:14;6.25;85.80
68128;SHT30;54931;52.098;21.006;2023-04-07T04:43:42;6.28;85.80
68128;SHT30;54931;52.098;21.006;2023-04-07T04:46:10;6.28;85.84
68128;SHT30;54931;52.098;21.006;2023-04-07T04:48:38;6.30;85.86
68128;SHT30;54931;52.098;21.006;2023-04-07T04:51:06;6.32;85.83
68128;SHT30;54931;52.098;21.006;2023-04-07T04:53:33;6.33;85.80
68128;SHT30;54931;52.098;21.006;2023-04-07T04:56:01;6.35;85.87
68128;SHT30;54931;52.098;21.006;2023-04-07T04:58:29;6.36;85.86
68128;SHT30;54931;52.098;21.006;2023-04-07T05:00:57;6.38;85.88
68128;SHT30;54931;52.098;21.006;2023-04-07T05:03:27;6.40;85.87
68128;SHT30;54931;52.098;21.006;2023-04-07T05:05:55;6.41;85.89
68128;SHT30;54931;52.098;21.006;2023-04-07T05:08:23;6.43;85.83
68128;SHT30;54931;52.098;21.006;2023-04-07T05:10:50;6.43;85.82
68128;SHT30;54931;52.098;21.006;2023-04-07T05:13:18;6.46;85.83
68128;SHT30;54931;52.098;21.006;2023-04-07T05:15:46;6.48;85.84
68128;SHT30;54931;52.098;21.006;2023-04-07T05:18:13;6.49;85.84
68128;SHT30;54931;52.098;21.006;2023-04-07T05:20:42;6.50;85.86
68128;SHT30;54931;52.098;21.006;2023-04-07T05:23:10;6.53;85.88
68128;SHT30;54931;52.098;21.006;2023-04-07T05:25:38;6.57;85.89
68128;SHT30;54931;52.098;21.006;2023-04-07T05:28:06;6.60;85.90
68128;SHT30;54931;52.098;21.006;2023-04-07T05:30:34;6.63;85.86
68128;SHT30;54931;52.098;21.006;2023-04-07T05:33:02;6.68;85.85
68128;SHT30;54931;52.098;21.006;2023-04-07T05:35:31;6.73;85.81
68128;SHT30;54931;52.098;21.006;2023-04-07T05:37:59;6.78;85.75
68128;SHT30;54931;52.098;21.006;2023-04-07T05:40:27;6.82;85.70
68128;SHT30;54931;52.098;21.006;2023-04-07T05:42:57;6.86;85.69
68128;SHT30;54931;52.098;21.006;2023-04-07T05:45:25;6.91;85.64
68128;SHT30;54931;52.098;21.006;2023-04-07T05:47:52;6.96;85.66
68128;SHT30;54931;52.098;21.006;2023-04-07T05:50:20;6.99;85.60
68128;SHT30;54931;52.098;21.006;2023-04-07T05:52:48;7.05;85.52
68128;SHT30;54931;52.098;21.006;2023-04-07T05:55:16;7.08;85.44
68128;SHT30;54931;52.098;21.006;2023-04-07T05:57:44;7.12;85.43
68128;SHT30;54931;52.098;21.006;2023-04-07T06:00:12;7.14;85.39
68128;SHT30;54931;52.098;21.006;2023-04-07T06:02:41;7.17;85.38
68128;SHT30;54931;52.098;21.006;2023-04-07T06:05:09;7.19;85.40
68128;SHT30;54931;52.098;21.006;2023-04-07T06:07:37;7.17;85.34
68128;SHT30;54931;52.098;21.006;2023-04-07T06:10:05;7.17;85.32
68128;SHT30;54931;52.098;21.006;2023-04-07T06:12:35;7.17;85.34
68128;SHT30;54931;52.098;21.006;2023-04-07T06:15:03;7.17;85.40
68128;SHT30;54931;52.098;21.006;2023-04-07T06:17:32;7.18;85.38
68128;SHT30;54931;52.098;21.006;2023-04-07T06:20:00;7.20;85.40
68128;SHT30;54931;52.098;21.006;2023-04-07T06:22:28;7.21;85.39
68128;SHT30;54931;52.098;21.006;2023-04-07T06:24:55;7.23;85.40
68128;SHT30;54931;52.098;21.006;2023-04-07T06:27:23;7.25;85.43
68128;SHT30;54931;52.098;21.006;2023-04-07T06:29:51;7.26;85.40
68128;SHT30;54931;52.098;21.006;2023-04-07T06:32:19;7.26;85.39
68128;SHT30;54931;52.098;21.006;2023-04-07T06:34:46;7.29;85.40
68128;SHT30;54931;52.098;21.006;2023-04-07T06:37:14;7.32;85.40
68128;SHT30;54931;52.098;21.006;2023-04-07T06:39:43;7.36;85.40
68128;SHT30;54931;52.098;21.006;2023-04-07T06:42:11;7.39;85.35
68128;SHT30;54931;52.098;21.006;2023-04-07T06:44:39;7.43;85.40
68128;SHT30;54931;52.098;21.006;2023-04-07T06:47:07;7.48;85.40
68128;SHT30;54931;52.098;21.006;2023-04-07T06:49:36;7.53;85.40
68128;SHT30;54931;52.098;21.006;2023-04-07T06:52:04;7.58;85.40
68128;SHT30;54931;52.098;21.006;2023-04-07T06:54:32;7.63;85.33
68128;SHT30;54931;52.098;21.006;2023-04-07T06:57:00;7.67;85.26
68128;SHT30;54931;52.098;21.006;2023-04-07T06:59:28;7.71;85.23
68128;SHT30;54931;52.098;21.006;2023-04-07T07:01:55;7.76;85.22
68128;SHT30;54931;52.098;21.006;2023-04-07T07:04:23;7.81;85.20
68128;SHT30;54931;52.098;21.006;2023-04-07T07:06:50;7.85;85.27
68128;SHT30;54931;52.098;21.006;2023-04-07T07:09:18;7.88;85.11
68128;SHT30;54931;52.098;21.006;2023-04-07T07:11:46;7.91;85.08
68128;SHT30;54931;52.098;21.006;2023-04-07T07:14:14;7.95;85.01
68128;SHT30;54931;52.098;21.006;2023-04-07T07:16:41;7.98;85.07
68128;SHT30;54931;52.098;21.006;2023-04-07T07:19:09;8.02;85.00
68128;SHT30;54931;52.098;21.006;2023-04-07T07:21:37;8.03;84.82
68128;SHT30;54931;52.098;21.006;2023-04-07T07:24:06;8.01;84.73
68128;SHT30;54931;52.098;21.006;2023-04-07T07:26:34;8.03;84.83
68128;SHT30;54931;52.098;21.006;2023-04-07T07:29:02;8.07;84.90
68128;SHT30;54931;52.098;21.006;2023-04-07T07:31:30;8.12;84.90
68128;SHT30;54931;52.098;21.006;2023-04-07T07:33:57;8.18;84.98
68128;SHT30;54931;52.098;21.006;2023-04-07T07:36:25;8.24;84.92
68128;SHT30;54931;52.098;21.006;2023-04-07T07:38:53;8.28;84.83
68128;SHT30;54931;52.098;21.006;2023-04-07T07:41:20;8.30;84.66
68128;SHT30;54931;52.098;21.006;2023-04-07T07:43:49;8.31;84.65
68128;SHT30;54931;52.098;21.006;2023-04-07T07:46:16;8.38;84.84
68128;SHT30;54931;52.098;21.006;2023-04-07T07:48:44;8.43;84.72
68128;SHT30;54931;52.098;21.006;2023-04-07T07:51:12;8.49;84.60
68128;SHT30;54931;52.098;21.006;2023-04-07T07:53:40;8.52;84.53
68128;SHT30;54931;52.098;21.006;2023-04-07T07:56:08;8.62;84.73
68128;SHT30;54931;52.098;21.006;2023-04-07T07:58:36;8.72;84.68
68128;SHT30;54931;52.098;21.006;2023-04-07T08:01:04;8.85;84.68
68128;SHT30;54931;52.098;21.006;2023-04-07T08:03:32;8.94;84.47
68128;SHT30;54931;52.098;21.006;2023-04-07T08:05:59;9.00;84.37
68128;SHT30;54931;52.098;21.006;2023-04-07T08:08:27;9.09;84.23
68128;SHT30;54931;52.098;21.006;2023-04-07T08:10:55;9.14;84.10
68128;SHT30;54931;52.098;21.006;2023-04-07T08:13:23;9.17;84.03
68128;SHT30;54931;52.098;21.006;2023-04-07T08:15:51;9.22;83.99
68128;SHT30;54931;52.098;21.006;2023-04-07T08:18:20;9.27;83.94
68128;SHT30;54931;52.098;21.006;2023-04-07T08:20:48;9.33;83.94
68128;SHT30;54931;52.098;21.006;2023-04-07T08:23:16;9.41;83.98
68128;SHT30;54931;52.098;21.006;2023-04-07T08:25:44;9.51;84.03
68128;SHT30;54931;52.098;21.006;2023-04-07T08:28:12;9.60;83.95
68128;SHT30;54931;52.098;21.006;2023-04-07T08:30:39;9.65;83.68
68128;SHT30;54931;52.098;21.006;2023-04-07T08:33:07;9.65;83.44
68128;SHT30;54931;52.098;21.006;2023-04-07T08:35:36;9.64;83.43
68128;SHT30;54931;52.098;21.006;2023-04-07T08:38:04;9.66;83.37
68128;SHT30;54931;52.098;21.006;2023-04-07T08:40:32;9.65;83.19
68128;SHT30;54931;52.098;21.006;2023-04-07T08:43:02;9.66;83.23
68128;SHT30;54931;52.098;21.006;2023-04-07T08:45:39;9.69;83.34
68128;SHT30;54931;52.098;21.006;2023-04-07T08:48:15;9.75;83.35
68128;SHT30;54931;52.098;21.006;2023-04-07T08:50:44;9.83;83.37
68128;SHT30;54931;52.098;21.006;2023-04-07T08:53:27;9.93;83.44
68128;SHT30;54931;52.098;21.006;2023-04-07T08:56:04;10.08;83.25
68128;SHT30;54931;52.098;21.006;2023-04-07T08:58:34;10.13;82.97
68128;SHT30;54931;52.098;21.006;2023-04-07T09:01:03;10.21;82.97
68128;SHT30;54931;52.098;21.006;2023-04-07T09:03:32;10.26;82.68
68128;SHT30;54931;52.098;21.006;2023-04-07T09:06:01;10.29;82.53
68128;SHT30;54931;52.098;21.006;2023-04-07T09:08:29;10.31;82.38
68128;SHT30;54931;52.098;21.006;2023-04-07T09:10:57;10.35;82.50
68128;SHT30;54931;52.098;21.006;2023-04-07T09:13:24;10.41;82.27
68128;SHT30;54931;52.098;21.006;2023-04-07T09:15:52;10.45;82.15
68128;SHT30;54931;52.098;21.006;2023-04-07T09:18:20;10.49;82.12
68128;SHT30;54931;52.098;21.006;2023-04-07T09:21:01;10.50;81.97
68128;SHT30;54931;52.098;21.006;2023-04-07T09:23:32;10.53;82.04
68128;SHT30;54931;52.098;21.006;2023-04-07T09:28:58;10.62;82.06
68128;SHT30;54931;52.098;21.006;2023-04-07T09:31:46;10.65;81.88
68128;SHT30;54931;52.098;21.006;2023-04-07T09:34:33;10.62;81.66
68128;SHT30;54931;52.098;21.006;2023-04-07T09:37:04;10.56;81.57
68128;SHT30;54931;52.098;21.006;2023-04-07T09:39:48;10.50;81.60
68128;SHT30;54931;52.098;21.006;2023-04-07T09:42:19;10.49;81.74
68128;SHT30;54931;52.098;21.006;2023-04-07T09:44:47;10.53;82.03
68128;SHT30;54931;52.098;21.006;2023-04-07T09:47:16;10.61;82.16
68128;SHT30;54931;52.098;21.006;2023-04-07T09:49:51;10.64;81.78
68128;SHT30;54931;52.098;21.006;2023-04-07T09:52:21;10.69;81.85
68128;SHT30;54931;52.098;21.006;2023-04-07T09:55:13;10.75;81.70
68128;SHT30;54931;52.098;21.006;2023-04-07T09:57:41;10.77;81.41
68128;SHT30;54931;52.098;21.006;2023-04-07T10:00:11;10.82;81.62
68128;SHT30;54931;52.098;21.006;2023-04-07T10:02:39;10.87;81.29
68128;SHT30;54931;52.098;21.006;2023-04-07T10:05:09;10.90;81.29
68128;SHT30;54931;52.098;21.006;2023-04-07T10:07:37;10.95;81.39
68128;SHT30;54931;52.098;21.006;2023-04-07T10:10:05;11.02;81.16
68128;SHT30;54931;52.098;21.006;2023-04-07T10:12:36;11.06;81.21
68128;SHT30;54931;52.098;21.006;2023-04-07T10:15:04;11.10;80.92
68128;SHT30;54931;52.098;21.006;2023-04-07T10:17:34;11.14;81.00
68128;SHT30;54931;52.098;21.006;2023-04-07T10:20:03;11.18;80.93
68128;SHT30;54931;52.098;21.006;2023-04-07T10:22:37;11.22;81.06
68128;SHT30;54931;52.098;21.006;2023-04-07T10:25:11;11.28;80.95
68128;SHT30;54931;52.098;21.006;2023-04-07T10:27:48;11.36;80.88
68128;SHT30;54931;52.098;21.006;2023-04-07T10:32:50;11.49;80.72
68128;SHT30;54931;52.098;21.006;2023-04-07T10:35:20;11.56;80.58
68128;SHT30;54931;52.098;21.006;2023-04-07T10:40:36;11.61;80.28
68128;SHT30;54931;52.098;21.006;2023-04-07T10:43:04;11.60;80.14
68128;SHT30;54931;52.098;21.006;2023-04-07T10:48:15;11.69;80.36
68128;SHT30;54931;52.098;21.006;2023-04-07T10:50:45;11.71;80.05
68128;SHT30;54931;52.098;21.006;2023-04-07T10:53:34;11.69;79.84
68128;SHT30;54931;52.098;21.006;2023-04-07T10:56:02;11.65;79.90
68128;SHT30;54931;52.098;21.006;2023-04-07T10:58:31;11.59;79.78
68128;SHT30;54931;52.098;21.006;2023-04-07T11:03:31;11.48;79.86
68128;SHT30;54931;52.098;21.006;2023-04-07T11:11:10;11.34;80.28
68128;SHT30;54931;52.098;21.006;2023-04-07T11:13:43;11.30;80.45
68128;SHT30;54931;52.098;21.006;2023-04-07T11:16:16;11.32;80.60
68128;SHT30;54931;52.098;21.006;2023-04-07T11:18:46;11.32;80.63
68128;SHT30;54931;52.098;21.006;2023-04-07T11:21:17;11.31;80.73
68128;SHT30;54931;52.098;21.006;2023-04-07T11:23:46;11.31;80.92
68128;SHT30;54931;52.098;21.006;2023-04-07T11:26:14;11.33;81.01
68128;SHT30;54931;52.098;21.006;2023-04-07T11:28:46;11.33;81.13
68128;SHT30;54931;52.098;21.006;2023-04-07T11:31:22;11.35;81.27
68128;SHT30;54931;52.098;21.006;2023-04-07T11:33:52;11.34;81.25
68128;SHT30;54931;52.098;21.006;2023-04-07T11:36:25;11.31;81.28
68128;SHT30;54931;52.098;21.006;2023-04-07T11:39:17;11.31;81.44
68128;SHT30;54931;52.098;21.006;2023-04-07T11:41:48;11.31;81.61
68128;SHT30;54931;52.098;21.006;2023-04-07T11:44:17;11.33;81.71
68128;SHT30;54931;52.098;21.006;2023-04-07T11:46:52;11.34;81.79
68128;SHT30;54931;52.098;21.006;2023-04-07T11:49:20;11.34;81.84
68128;SHT30;54931;52.098;21.006;2023-04-07T11:52:01;11.31;81.84
68128;SHT30;54931;52.098;21.006;2023-04-07T11:54:41;11.26;82.01
68128;SHT30;54931;52.098;21.006;2023-04-07T11:57:13;11.23;82.12
68128;SHT30;54931;52.098;21.006;2023-04-07T12:00:06;11.24;82.29
68128;SHT30;54931;52.098;21.006;2023-04-07T12:02:36;11.27;82.47
68128;SHT30;54931;52.098;21.006;2023-04-07T12:05:04;11.33;82.54
68128;SHT30;54931;52.098;21.006;2023-04-07T12:07:34;11.42;82.58
68128;SHT30;54931;52.098;21.006;2023-04-07T12:10:20;11.49;82.65
68128;SHT30;54931;52.098;21.006;2023-04-07T12:12:51;11.62;82.56
68128;SHT30;54931;52.098;21.006;2023-04-07T12:15:19;11.67;82.40
68128;SHT30;54931;52.098;21.006;2023-04-07T12:17:47;11.67;82.15
68128;SHT30;54931;52.098;21.006;2023-04-07T12:20:15;11.62;82.07
68128;SHT30;54931;52.098;21.006;2023-04-07T12:22:44;11.58;82.11
68128;SHT30;54931;52.098;21.006;2023-04-07T12:25:12;11.56;82.17
68128;SHT30;54931;52.098;21.006;2023-04-07T12:27:40;11.56;82.20
68128;SHT30;54931;52.098;21.006;2023-04-07T12:30:09;11.63;82.25
68128;SHT30;54931;52.098;21.006;2023-04-07T12:32:38;11.74;81.76
68128;SHT30;54931;52.098;21.006;2023-04-07T12:35:06;11.76;79.24
68128;SHT30;54931;52.098;21.006;2023-04-07T12:37:34;11.68;77.54
68128;SHT30;54931;52.098;21.006;2023-04-07T12:40:03;11.73;78.33
68128;SHT30;54931;52.098;21.006;2023-04-07T12:42:32;11.81;78.00
68128;SHT30;54931;52.098;21.006;2023-04-07T12:44:59;11.89;78.36
68128;SHT30;54931;52.098;21.006;2023-04-07T12:47:27;11.96;77.42
68128;SHT30;54931;52.098;21.006;2023-04-07T12:49:55;12.04;77.40
68128;SHT30;54931;52.098;21.006;2023-04-07T12:52:22;12.11;76.73
68128;SHT30;54931;52.098;21.006;2023-04-07T12:54:50;12.09;74.87
68128;SHT30;54931;52.098;21.006;2023-04-07T12:57:18;12.10;75.27
68128;SHT30;54931;52.098;21.006;2023-04-07T12:59:46;12.27;75.14
68128;SHT30;54931;52.098;21.006;2023-04-07T13:02:14;12.37;74.18
68128;SHT30;54931;52.098;21.006;2023-04-07T13:04:43;12.54;74.13
68128;SHT30;54931;52.098;21.006;2023-04-07T13:07:12;12.62;72.11
68128;SHT30;54931;52.098;21.006;2023-04-07T13:09:40;12.64;72.48
68128;SHT30;54931;52.098;21.006;2023-04-07T13:12:11;12.66;72.10
68128;SHT30;54931;52.098;21.006;2023-04-07T13:14:39;12.74;71.77
68128;SHT30;54931;52.098;21.006;2023-04-07T13:17:08;12.75;71.36
68128;SHT30;54931;52.098;21.006;2023-04-07T13:19:35;12.80;71.08
68128;SHT30;54931;52.098;21.006;2023-04-07T13:22:03;12.76;69.99
68128;SHT30;54931;52.098;21.006;2023-04-07T13:24:31;12.70;69.97
68128;SHT30;54931;52.098;21.006;2023-04-07T13:26:59;12.76;70.20
68128;SHT30;54931;52.098;21.006;2023-04-07T13:29:26;12.82;69.43
68128;SHT30;54931;52.098;21.006;2023-04-07T13:32:03;12.83;67.26
68128;SHT30;54931;52.098;21.006;2023-04-07T13:34:35;12.84;66.89
68128;SHT30;54931;52.098;21.006;2023-04-07T13:37:02;12.88;67.04
68128;SHT30;54931;52.098;21.006;2023-04-07T13:39:31;12.96;66.19
68128;SHT30;54931;52.098;21.006;2023-04-07T13:41:59;12.98;65.33
68128;SHT30;54931;52.098;21.006;2023-04-07T13:44:27;13.02;65.40
68128;SHT30;54931;52.098;21.006;2023-04-07T13:46:55;13.08;65.52
68128;SHT30;54931;52.098;21.006;2023-04-07T13:49:24;13.07;64.73
68128;SHT30;54931;52.098;21.006;2023-04-07T13:51:52;13.06;64.39
68128;SHT30;54931;52.098;21.006;2023-04-07T13:54:19;13.01;64.05
68128;SHT30;54931;52.098;21.006;2023-04-07T13:56:47;12.95;64.26
68128;SHT30;54931;52.098;21.006;2023-04-07T13:59:15;12.85;63.65
68128;SHT30;54931;52.098;21.006;2023-04-07T14:01:42;12.76;63.68
68128;SHT30;54931;52.098;21.006;2023-04-07T14:04:10;12.67;63.83
68128;SHT30;54931;52.098;21.006;2023-04-07T14:06:38;12.61;63.96
68128;SHT30;54931;52.098;21.006;2023-04-07T14:09:06;12.47;63.70
68128;SHT30;54931;52.098;21.006;2023-04-07T14:11:34;12.32;64.79
68128;SHT30;54931;52.098;21.006;2023-04-07T14:14:02;12.10;65.73
68128;SHT30;54931;52.098;21.006;2023-04-07T14:16:30;11.66;67.42
68128;SHT30;54931;52.098;21.006;2023-04-07T14:18:58;11.27;68.82
68128;SHT30;54931;52.098;21.006;2023-04-07T14:21:25;10.98;70.08
68128;SHT30;54931;52.098;21.006;2023-04-07T14:23:56;10.70;71.02
68128;SHT30;54931;52.098;21.006;2023-04-07T14:26:24;10.45;72.00
68128;SHT30;54931;52.098;21.006;2023-04-07T14:28:52;10.20;72.40
68128;SHT30;54931;52.098;21.006;2023-04-07T14:31:20;10.06;72.38
68128;SHT30;54931;52.098;21.006;2023-04-07T14:33:48;9.96;72.66
68128;SHT30;54931;52.098;21.006;2023-04-07T14:36:15;9.89;72.74
68128;SHT30;54931;52.098;21.006;2023-04-07T14:38:43;9.83;72.57
68128;SHT30;54931;52.098;21.006;2023-04-07T14:41:10;9.78;72.68
68128;SHT30;54931;52.098;21.006;2023-04-07T14:43:39;9.77;72.84
68128;SHT30;54931;52.098;21.006;2023-04-07T14:46:07;9.79;72.86
68128;SHT30;54931;52.098;21.006;2023-04-07T14:48:35;9.84;72.90
68128;SHT30;54931;52.098;21.006;2023-04-07T14:51:02;9.90;72.83
68128;SHT30;54931;52.098;21.006;2023-04-07T14:53:30;9.96;72.38
68128;SHT30;54931;52.098;21.006;2023-04-07T14:55:58;10.00;72.11
68128;SHT30;54931;52.098;21.006;2023-04-07T14:58:25;10.04;72.10
68128;SHT30;54931;52.098;21.006;2023-04-07T15:00:52;10.11;72.03
68128;SHT30;54931;52.098;21.006;2023-04-07T15:03:20;10.17;72.02
68128;SHT30;54931;52.098;21.006;2023-04-07T15:05:48;10.26;71.85
68128;SHT30;54931;52.098;21.006;2023-04-07T15:08:15;10.32;71.49
68128;SHT30;54931;52.098;21.006;2023-04-07T15:10:43;10.40;71.11
68128;SHT30;54931;52.098;21.006;2023-04-07T15:13:10;10.56;70.92
68128;SHT30;54931;52.098;21.006;2023-04-07T15:15:38;10.72;70.87
68128;SHT30;54931;52.098;21.006;2023-04-07T15:18:05;10.78;70.51
68128;SHT30;54931;52.098;21.006;2023-04-07T15:20:33;10.83;70.39
68128;SHT30;54931;52.098;21.006;2023-04-07T15:23:01;10.93;69.71
68128;SHT30;54931;52.098;21.006;2023-04-07T15:25:28;11.01;69.10
68128;SHT30;54931;52.098;21.006;2023-04-07T15:27:56;11.07;69.30
68128;SHT30;54931;52.098;21.006;2023-04-07T15:30:23;11.09;68.57
68128;SHT30;54931;52.098;21.006;2023-04-07T15:32:55;11.03;68.66
68128;SHT30;54931;52.098;21.006;2023-04-07T15:35:27;11.01;68.78
68128;SHT30;54931;52.098;21.006;2023-04-07T15:37:54;10.97;69.10
68128;SHT30;54931;52.098;21.006;2023-04-07T15:40:22;10.98;69.27
68128;SHT30;54931;52.098;21.006;2023-04-07T15:42:50;10.95;67.99
68128;SHT30;54931;52.098;21.006;2023-04-07T15:45:17;10.82;67.47
68128;SHT30;54931;52.098;21.006;2023-04-07T15:47:45;10.75;68.17
68128;SHT30;54931;52.098;21.006;2023-04-07T15:50:13;10.66;68.26
68128;SHT30;54931;52.098;21.006;2023-04-07T15:52:41;10.58;68.76
68128;SHT30;54931;52.098;21.006;2023-04-07T15:55:08;10.52;68.86
68128;SHT30;54931;52.098;21.006;2023-04-07T15:57:36;10.46;68.75
68128;SHT30;54931;52.098;21.006;2023-04-07T16:00:04;10.42;68.25
68128;SHT30;54931;52.098;21.006;2023-04-07T16:02:33;10.37;67.66
68128;SHT30;54931;52.098;21.006;2023-04-07T16:05:01;10.29;66.39